createdAt,value
2019-03-04T00:00:11.902Z,0.70
2019-03-04T00:02:40.374Z,0.73
2019-03-04T00:05:08.897Z,0.70
2019-03-04T00:07:37.375Z,0.50
2019-03-04T00:10:06.157Z,0.70
2019-03-04T00:12:34.908Z,0.70
2019-03-04T00:15:03.552Z,0.70
2019-03-04T00:17:31.990Z,0.80
2019-03-04T00:20:00.433Z,0.63
2019-03-04T00:22:28.899Z,0.60
2019-03-04T00:24:57.341Z,0.80
2019-03-04T00:27:26.203Z,0.63
2019-03-04T00:29:54.976Z,0.70
2019-03-04T00:32:23.420Z,0.70
2019-03-04T00:34:51.890Z,0.60
2019-03-04T00:37:20.337Z,0.50
2019-03-04T00:39:48.783Z,0.50
2019-03-04T00:42:17.590Z,0.70
2019-03-04T00:44:46.034Z,0.50
2019-03-04T00:47:14.847Z,1.00
2019-03-04T00:49:43.661Z,0.60
2019-03-04T00:52:12.119Z,0.70
2019-03-04T00:54:40.561Z,0.60
2019-03-04T00:57:09.038Z,0.60
2019-03-04T00:59:37.772Z,0.50
2019-03-04T01:02:06.305Z,0.70
2019-03-04T01:04:34.749Z,0.83
2019-03-04T01:07:03.235Z,0.63
2019-03-04T01:09:31.673Z,0.60
2019-03-04T01:12:00.127Z,0.60
2019-03-04T01:14:28.589Z,0.77
2019-03-04T01:16:57.035Z,0.77
2019-03-04T01:19:25.823Z,0.70
2019-03-04T01:21:54.284Z,0.80
2019-03-04T01:24:22.733Z,0.70
2019-03-04T01:26:51.202Z,0.73
2019-03-04T01:29:19.649Z,0.60
2019-03-04T01:31:48.182Z,0.60
2019-03-04T01:34:16.631Z,0.50
2019-03-04T01:36:45.421Z,0.60
2019-03-04T01:39:13.863Z,0.73
2019-03-04T01:41:42.305Z,1.00
2019-03-04T01:44:10.773Z,0.67
2019-03-04T01:46:39.522Z,0.50
2019-03-04T01:49:07.970Z,0.63
2019-03-04T01:51:37.299Z,0.70
2019-03-04T01:54:06.087Z,0.60
2019-03-04T01:56:34.882Z,0.60
2019-03-04T01:59:03.669Z,0.60
2019-03-04T02:01:32.182Z,0.80
2019-03-04T02:04:00.625Z,0.70
2019-03-04T02:06:29.094Z,0.60
2019-03-04T02:08:57.894Z,0.77
2019-03-04T02:11:26.342Z,0.50
2019-03-04T02:13:54.822Z,0.60
2019-03-04T02:16:23.268Z,0.50
2019-03-04T02:18:52.047Z,0.40
2019-03-04T02:21:20.695Z,0.60
2019-03-04T02:23:49.141Z,0.40
2019-03-04T02:26:18.601Z,0.47
2019-03-04T02:28:47.390Z,0.60
2019-03-04T02:31:15.843Z,0.60
2019-03-04T02:33:44.387Z,0.60
2019-03-04T02:36:13.067Z,0.73
2019-03-04T02:38:41.514Z,0.50
2019-03-04T02:41:09.996Z,0.60
2019-03-04T02:43:38.506Z,0.80
2019-03-04T02:46:07.018Z,0.70
2019-03-04T02:48:35.488Z,0.60
2019-03-04T02:51:04.365Z,0.60
2019-03-04T02:53:32.810Z,0.57
2019-03-04T02:56:01.282Z,0.67
2019-03-04T02:58:29.730Z,0.60
2019-03-04T03:00:58.243Z,0.80
2019-03-04T03:03:26.705Z,0.60
2019-03-04T03:05:55.548Z,0.50
2019-03-04T03:08:24.058Z,0.60
2019-03-04T03:10:52.530Z,0.70
2019-03-04T03:13:20.974Z,0.50
2019-03-04T03:15:49.425Z,0.60
2019-03-04T03:18:17.890Z,0.60
2019-03-04T03:20:46.522Z,0.67
2019-03-04T03:23:15.039Z,0.40
2019-03-04T03:25:43.907Z,0.50
2019-03-04T03:28:12.676Z,0.60
2019-03-04T03:30:41.125Z,0.60
2019-03-04T03:33:09.741Z,0.60
2019-03-04T03:35:38.406Z,0.47
2019-03-04T03:38:06.960Z,0.57
2019-03-04T03:40:35.455Z,0.50
2019-03-04T03:43:03.918Z,0.50
2019-03-04T03:45:32.506Z,0.70
2019-03-04T03:48:00.950Z,0.40
2019-03-04T03:50:29.422Z,0.50
2019-03-04T03:52:57.965Z,0.60
2019-03-04T03:55:26.483Z,0.50
2019-03-04T03:57:54.935Z,0.60
2019-03-04T04:00:25.131Z,0.50
2019-03-04T04:02:53.928Z,0.70
2019-03-04T04:05:22.441Z,0.70
2019-03-04T04:07:50.994Z,0.50
2019-03-04T04:10:20.772Z,0.60
2019-03-04T04:12:49.227Z,0.60
2019-03-04T04:15:19.135Z,0.40
2019-03-04T04:17:47.578Z,0.70
2019-03-04T04:20:16.272Z,0.60
2019-03-04T04:22:44.802Z,0.80
2019-03-04T04:25:13.770Z,0.60
2019-03-04T04:27:42.565Z,0.57
2019-03-04T04:30:16.958Z,0.70
2019-03-04T04:32:45.405Z,0.63
2019-03-04T04:35:13.933Z,0.53
2019-03-04T04:37:42.733Z,0.50
2019-03-04T04:40:12.916Z,0.70
2019-03-04T04:42:41.383Z,0.70
2019-03-04T04:45:10.362Z,0.50
2019-03-04T04:47:39.994Z,0.67
2019-03-04T04:50:17.685Z,0.60
2019-03-04T04:52:46.154Z,0.60
2019-03-04T04:55:14.597Z,0.80
2019-03-04T04:57:43.047Z,0.70
2019-03-04T05:00:14.453Z,0.70
2019-03-04T05:02:43.350Z,0.70
2019-03-04T05:05:11.934Z,0.60
2019-03-04T05:07:40.584Z,0.40
2019-03-04T05:10:12.266Z,0.60
2019-03-04T05:12:41.023Z,0.50
2019-03-04T05:15:12.027Z,0.70
2019-03-04T05:17:40.543Z,0.50
2019-03-04T05:20:14.748Z,0.60
2019-03-04T05:22:43.218Z,0.70
2019-03-04T05:25:11.834Z,0.87
2019-03-04T05:27:59.645Z,0.90
2019-03-04T05:30:28.086Z,0.70
2019-03-04T05:32:56.835Z,0.83
2019-03-04T05:35:25.622Z,0.80
2019-03-04T05:37:54.068Z,0.90
2019-03-04T05:40:22.509Z,1.00
2019-03-04T05:42:50.974Z,0.83
2019-03-04T05:45:19.816Z,0.70
2019-03-04T05:47:48.267Z,0.60
2019-03-04T05:50:21.511Z,0.93
2019-03-04T05:52:49.957Z,0.80
2019-03-04T05:55:18.407Z,0.70
2019-03-04T05:57:46.874Z,0.90
2019-03-04T06:00:23.819Z,0.43
2019-03-04T06:03:00.603Z,0.47
2019-03-04T06:05:29.071Z,0.70
2019-03-04T06:07:59.154Z,0.63
2019-03-04T06:10:27.653Z,0.90
2019-03-04T06:12:56.118Z,0.90
2019-03-04T06:15:24.563Z,1.53
2019-03-04T06:17:53.376Z,0.87
2019-03-04T06:20:21.915Z,0.77
2019-03-04T06:22:50.395Z,1.13
2019-03-04T06:25:21.275Z,0.80
2019-03-04T06:27:49.758Z,0.97
2019-03-04T06:30:20.578Z,1.27
2019-03-04T06:32:49.186Z,0.80
2019-03-04T06:35:17.731Z,0.93
2019-03-04T06:37:46.175Z,0.93
2019-03-04T06:40:16.854Z,0.90
2019-03-04T06:42:45.368Z,1.10
2019-03-04T06:45:16.132Z,1.00
2019-03-04T06:47:44.845Z,1.20
2019-03-04T06:50:47.546Z,1.20
2019-03-04T06:53:35.450Z,1.67
2019-03-04T06:56:13.174Z,1.30
2019-03-04T06:59:03.355Z,1.20
2019-03-04T07:01:52.592Z,1.17
2019-03-04T07:04:40.505Z,1.10
2019-03-04T07:07:08.978Z,1.27
2019-03-04T07:09:37.427Z,1.10
2019-03-04T07:12:05.870Z,1.23
2019-03-04T07:14:34.350Z,1.23
2019-03-04T07:17:02.860Z,1.10
2019-03-04T07:19:31.367Z,1.20
2019-03-04T07:21:59.830Z,1.37
2019-03-04T07:24:28.272Z,1.40
2019-03-04T07:26:56.745Z,1.00
2019-03-04T07:29:25.190Z,1.30
2019-03-04T07:31:53.658Z,1.70
2019-03-04T07:34:22.106Z,3.00
2019-03-04T07:36:50.622Z,5.27
2019-03-04T07:39:19.709Z,3.37
2019-03-04T07:41:48.222Z,1.70
2019-03-04T07:44:16.744Z,1.20
2019-03-04T07:46:45.207Z,1.37
2019-03-04T07:49:13.724Z,4.57
2019-03-04T07:51:42.166Z,4.90
2019-03-04T07:54:11.001Z,4.07
2019-03-04T07:56:39.477Z,3.77
2019-03-04T07:59:08.271Z,2.33
2019-03-04T08:01:36.751Z,2.03
2019-03-04T08:04:05.334Z,1.70
2019-03-04T08:06:33.783Z,1.87
2019-03-04T08:09:17.455Z,1.90
2019-03-04T08:12:03.651Z,1.40
2019-03-04T08:14:32.123Z,1.40
2019-03-04T08:17:00.563Z,1.30
2019-03-04T08:19:29.009Z,1.57
2019-03-04T08:21:57.474Z,1.40
2019-03-04T08:24:26.283Z,1.80
2019-03-04T08:26:54.722Z,1.93
2019-03-04T08:29:23.163Z,3.33
2019-03-04T08:31:51.630Z,2.40
2019-03-04T08:34:20.385Z,2.10
2019-03-04T08:36:50.918Z,1.70
2019-03-04T08:39:19.391Z,1.80
2019-03-04T08:41:47.833Z,2.10
2019-03-04T08:44:17.783Z,3.07
2019-03-04T08:46:46.581Z,3.40
2019-03-04T08:49:16.618Z,4.40
2019-03-04T08:51:45.409Z,2.73
2019-03-04T08:54:13.873Z,2.27
2019-03-04T08:56:42.310Z,2.20
2019-03-04T08:59:11.131Z,1.77
2019-03-04T09:01:39.597Z,2.20
2019-03-04T09:04:08.073Z,2.53
2019-03-04T09:06:36.511Z,2.20
2019-03-04T09:09:07.161Z,1.93
2019-03-04T09:11:35.629Z,2.53
2019-03-04T09:14:04.279Z,2.50
2019-03-04T09:16:33.082Z,2.70
2019-03-04T09:19:01.538Z,3.00
2019-03-04T09:21:30.006Z,2.63
2019-03-04T09:23:58.449Z,2.70
2019-03-04T09:26:27.198Z,3.37
2019-03-04T09:28:55.670Z,4.00
2019-03-04T09:31:24.117Z,3.30
2019-03-04T09:33:52.842Z,3.63
2019-03-04T09:36:21.315Z,3.50
2019-03-04T09:38:50.125Z,4.23
2019-03-04T09:41:19.002Z,3.50
2019-03-04T09:43:47.793Z,3.60
2019-03-04T09:46:16.682Z,3.97
2019-03-04T09:48:45.464Z,3.63
2019-03-04T09:51:23.812Z,4.03
2019-03-04T09:53:44.476Z,4.00
2019-03-04T09:56:12.942Z,3.13
2019-03-04T09:58:41.385Z,2.90
2019-03-04T10:01:12.937Z,3.20
2019-03-04T10:03:47.090Z,3.87
2019-03-04T10:06:24.450Z,2.80
2019-03-04T10:09:19.090Z,2.70
2019-03-04T10:12:08.752Z,3.30
2019-03-04T10:14:42.873Z,2.50
2019-03-04T10:17:26.522Z,3.07
2019-03-04T10:20:14.967Z,3.60
2019-03-04T10:22:49.268Z,2.73
2019-03-04T10:25:32.923Z,2.87
2019-03-04T10:28:22.046Z,2.83
2019-03-04T10:31:19.182Z,2.37
2019-03-04T10:34:06.077Z,2.23
2019-03-04T10:37:03.714Z,2.17
2019-03-04T10:39:47.036Z,1.80
2019-03-04T10:42:24.303Z,2.20
2019-03-04T10:45:21.482Z,2.40
2019-03-04T10:47:49.932Z,2.10
2019-03-04T10:50:18.758Z,1.73
2019-03-04T10:52:47.226Z,2.40
2019-03-04T10:55:18.628Z,1.97
2019-03-04T10:57:47.075Z,2.03
2019-03-04T11:00:19.404Z,2.27
2019-03-04T11:02:47.846Z,1.90
2019-03-04T11:05:16.710Z,1.90
2019-03-04T11:07:45.178Z,1.70
2019-03-04T11:10:14.365Z,1.97
2019-03-04T11:12:43.174Z,2.13
2019-03-04T11:15:17.593Z,1.93
2019-03-04T11:17:46.041Z,2.20
2019-03-04T11:20:14.483Z,2.50
2019-03-04T11:22:43.349Z,2.10
2019-03-04T11:25:12.708Z,2.43
2019-03-04T11:27:41.387Z,1.83
2019-03-04T11:30:22.545Z,2.00
2019-03-04T11:32:51.601Z,2.10
2019-03-04T11:35:20.041Z,1.80
2019-03-04T11:37:48.884Z,2.47
2019-03-04T11:40:30.740Z,2.30
2019-03-04T11:42:59.867Z,2.40
2019-03-04T11:45:28.319Z,2.40
2019-03-04T11:47:56.853Z,2.43
2019-03-04T11:50:25.368Z,2.77
2019-03-04T11:52:53.882Z,3.10
2019-03-04T11:55:28.087Z,2.53
2019-03-04T11:57:56.899Z,2.73
2019-03-04T12:00:29.375Z,2.47
2019-03-04T12:02:57.885Z,3.17
2019-03-04T12:05:26.642Z,2.80
2019-03-04T12:07:55.088Z,3.50
2019-03-04T12:10:23.535Z,2.67
2019-03-04T12:12:52.390Z,2.00
2019-03-04T12:15:21.996Z,1.80
2019-03-04T12:17:50.450Z,1.20
2019-03-04T12:20:19.327Z,1.70
2019-03-04T12:22:47.797Z,1.90
2019-03-04T12:25:19.990Z,1.80
2019-03-04T12:27:48.509Z,2.30
2019-03-04T12:30:22.720Z,1.60
2019-03-04T12:32:53.550Z,1.13
2019-03-04T12:35:22.551Z,0.73
2019-03-04T12:37:51.374Z,0.60
2019-03-04T12:40:23.682Z,0.60
2019-03-04T12:42:52.223Z,0.73
2019-03-04T12:45:33.673Z,0.40
2019-03-04T12:47:54.633Z,0.20
2019-03-04T12:50:25.389Z,0.10
2019-03-04T12:52:54.702Z,0.20
2019-03-04T12:55:23.140Z,0.10
2019-03-04T12:57:53.321Z,0.10
2019-03-04T13:00:26.543Z,0.10
2019-03-04T13:02:57.822Z,0.20
2019-03-04T13:05:26.027Z,0.20
2019-03-04T13:07:54.561Z,0.20
2019-03-04T13:10:23.502Z,0.30
2019-03-04T13:12:52.077Z,0.30
2019-03-04T13:15:26.040Z,0.30
2019-03-04T13:17:54.485Z,0.40
2019-03-04T13:20:24.925Z,0.40
2019-03-04T13:22:53.407Z,0.20
2019-03-04T13:25:22.018Z,0.50
2019-03-04T13:27:50.538Z,0.40
2019-03-04T13:30:29.427Z,0.50
2019-03-04T13:32:58.013Z,0.40
2019-03-04T13:35:34.921Z,0.50
2019-03-04T13:38:03.596Z,0.60
2019-03-04T13:40:32.545Z,0.30
2019-03-04T13:43:01.189Z,0.50
2019-03-04T13:45:29.907Z,0.50
2019-03-04T13:47:58.670Z,0.60
2019-03-04T13:50:29.455Z,0.60
2019-03-04T13:52:58.400Z,0.30
2019-03-04T13:55:27.287Z,0.40
2019-03-04T13:57:56.026Z,0.60
2019-03-04T14:00:36.297Z,0.40
2019-03-04T14:03:05.097Z,0.60
2019-03-04T14:05:33.910Z,0.60
2019-03-04T14:08:02.449Z,0.50
2019-03-04T14:10:40.004Z,0.60
2019-03-04T14:13:08.550Z,0.70
2019-03-04T14:15:39.734Z,0.50
2019-03-04T14:18:08.810Z,0.73
2019-03-04T14:20:37.697Z,0.57
2019-03-04T14:23:06.323Z,0.60
2019-03-04T14:25:34.772Z,0.80
2019-03-04T14:28:03.324Z,0.50
2019-03-04T14:30:31.838Z,0.80
2019-03-04T14:33:00.290Z,0.70
2019-03-04T14:35:28.763Z,0.60
2019-03-04T14:37:57.225Z,0.50
2019-03-04T14:40:26.074Z,0.50
2019-03-04T14:42:55.277Z,0.60
2019-03-04T14:45:27.933Z,0.63
2019-03-04T14:47:56.485Z,0.70
2019-03-04T14:50:25.003Z,0.70
2019-03-04T14:52:53.452Z,0.63
2019-03-04T14:55:27.282Z,0.50
2019-03-04T14:57:55.738Z,0.83
2019-03-04T15:00:39.303Z,0.50
2019-03-04T15:03:08.018Z,0.80
2019-03-04T15:05:36.725Z,0.90
2019-03-04T15:08:05.536Z,0.70
2019-03-04T15:10:34.047Z,0.70
2019-03-04T15:13:02.501Z,0.67
2019-03-04T15:15:35.471Z,0.60
2019-03-04T15:18:04.153Z,0.67
2019-03-04T15:20:33.940Z,1.10
2019-03-04T15:23:02.645Z,0.50
2019-03-04T15:25:32.129Z,1.03
2019-03-04T15:28:22.199Z,0.80
2019-03-04T15:31:01.924Z,0.57
2019-03-04T15:33:30.542Z,0.77
2019-03-04T15:35:59.526Z,0.80
2019-03-04T15:38:27.988Z,0.73
2019-03-04T15:40:56.515Z,0.67
2019-03-04T15:43:25.103Z,0.50
2019-03-04T15:45:55.189Z,0.70
2019-03-04T15:48:28.435Z,0.80
2019-03-04T15:50:57.059Z,0.70
2019-03-04T15:53:25.546Z,0.63
2019-03-04T15:55:54.053Z,0.50
2019-03-04T15:58:22.518Z,0.50
2019-03-04T16:00:51.351Z,0.43
2019-03-04T16:03:20.484Z,0.67
2019-03-04T16:05:49.189Z,0.33
2019-03-04T16:08:17.969Z,0.40
2019-03-04T16:10:46.782Z,0.63
2019-03-04T16:13:15.537Z,0.60
2019-03-04T16:15:46.857Z,0.50
2019-03-04T16:18:15.498Z,0.40
2019-03-04T16:20:44.244Z,0.60
2019-03-04T16:23:12.690Z,0.50
2019-03-04T16:25:41.305Z,0.47
2019-03-04T16:28:13.277Z,0.47
2019-03-04T16:30:42.407Z,0.60
2019-03-04T16:33:11.019Z,0.63
2019-03-04T16:35:39.538Z,0.47
2019-03-04T16:38:07.985Z,0.47
2019-03-04T16:40:36.447Z,0.50
2019-03-04T16:43:05.058Z,0.40
2019-03-04T16:45:33.569Z,0.53
2019-03-04T16:48:02.558Z,0.63
2019-03-04T16:50:42.249Z,0.47
2019-03-04T16:53:14.121Z,0.30
2019-03-04T16:55:42.576Z,0.60
2019-03-04T16:58:11.440Z,0.53
2019-03-04T17:00:40.724Z,0.27
2019-03-04T17:03:09.237Z,0.40
2019-03-04T17:05:37.841Z,0.30
2019-03-04T17:08:06.463Z,0.30
2019-03-04T17:10:35.290Z,0.40
2019-03-04T17:13:03.834Z,0.50
2019-03-04T17:15:32.418Z,0.50
2019-03-04T17:18:01.054Z,0.50
2019-03-04T17:20:29.569Z,0.63
2019-03-04T17:22:58.073Z,0.57
2019-03-04T17:25:26.853Z,0.40
2019-03-04T17:27:55.394Z,0.67
2019-03-04T17:30:27.449Z,0.40
2019-03-04T17:32:56.337Z,0.20
2019-03-04T17:35:25.149Z,0.40
2019-03-04T17:37:53.731Z,0.73
2019-03-04T17:40:31.573Z,0.40
2019-03-04T17:43:00.113Z,0.50
2019-03-04T17:45:29.462Z,0.73
2019-03-04T17:47:58.001Z,0.40
2019-03-04T17:50:37.306Z,0.30
2019-03-04T17:53:14.309Z,0.30
2019-03-04T17:55:44.193Z,0.33
2019-03-04T17:58:13.475Z,0.20
2019-03-04T18:00:46.593Z,0.10
2019-03-04T18:03:15.562Z,0.10
2019-03-04T18:05:44.680Z,0.13
2019-03-04T18:08:13.172Z,0.40
2019-03-04T18:10:41.653Z,0.30
2019-03-04T18:13:15.424Z,0.30
2019-03-04T18:15:44.318Z,0.20
2019-03-04T18:18:13.830Z,0.30
2019-03-04T18:20:42.458Z,0.50
2019-03-04T18:23:11.019Z,0.40
2019-03-04T18:25:57.825Z,0.40
2019-03-04T18:28:29.760Z,0.40
2019-03-04T18:31:21.006Z,0.40
2019-03-04T18:33:58.137Z,0.60
2019-03-04T18:36:32.510Z,0.40
2019-03-04T18:39:25.105Z,0.50
2019-03-04T18:42:12.897Z,0.47
2019-03-04T18:44:44.842Z,0.47
2019-03-04T18:47:22.026Z,0.73
2019-03-04T18:49:50.499Z,0.47
2019-03-04T18:52:18.942Z,0.50
2019-03-04T18:54:47.752Z,0.60
2019-03-04T18:57:16.218Z,0.70
2019-03-04T18:59:44.761Z,0.47
2019-03-04T19:02:13.918Z,0.53
2019-03-04T19:04:45.265Z,0.70
2019-03-04T19:07:13.713Z,0.30
2019-03-04T19:09:42.535Z,0.53
2019-03-04T19:12:11.082Z,0.40
2019-03-04T19:14:39.526Z,0.50
2019-03-04T19:17:08.061Z,0.30
2019-03-04T19:19:36.593Z,0.30
2019-03-04T19:22:05.452Z,0.33
2019-03-04T19:24:33.965Z,0.43
2019-03-04T19:27:02.429Z,0.50
2019-03-04T19:29:36.773Z,0.70
2019-03-04T19:32:05.845Z,0.43
2019-03-04T19:34:34.295Z,0.30
2019-03-04T19:37:03.193Z,0.40
2019-03-04T19:39:31.661Z,0.50
2019-03-04T19:42:00.109Z,0.37
2019-03-04T19:44:28.550Z,0.43
2019-03-04T19:46:57.331Z,0.37
2019-03-04T19:49:26.322Z,0.83
2019-03-04T19:51:55.034Z,0.40
2019-03-04T19:54:23.508Z,0.67
2019-03-04T19:56:51.945Z,0.50
2019-03-04T19:59:20.776Z,0.70
2019-03-04T20:01:49.218Z,0.67
2019-03-04T20:04:17.833Z,0.60
2019-03-04T20:06:46.305Z,0.40
2019-03-04T20:09:14.931Z,0.40
2019-03-04T20:11:43.873Z,0.40
2019-03-04T20:14:12.779Z,0.50
2019-03-04T20:16:41.659Z,0.67
2019-03-04T20:19:10.134Z,0.40
2019-03-04T20:21:38.651Z,0.70
2019-03-04T20:24:07.430Z,0.77
2019-03-04T20:26:35.898Z,0.30
2019-03-04T20:29:04.883Z,0.30
2019-03-04T20:31:33.397Z,0.40
2019-03-04T20:34:02.198Z,0.60
2019-03-04T20:36:30.638Z,0.50
2019-03-04T20:38:59.090Z,0.70
2019-03-04T20:41:27.725Z,0.50
2019-03-04T20:43:56.179Z,0.60
2019-03-04T20:46:24.687Z,0.70
2019-03-04T20:48:53.548Z,0.47
2019-03-04T20:51:21.989Z,0.73
2019-03-04T20:53:50.710Z,0.40
2019-03-04T20:56:19.181Z,0.70
2019-03-04T20:58:47.631Z,0.70
2019-03-04T21:01:16.777Z,0.60
2019-03-04T21:03:45.319Z,0.70
2019-03-04T21:06:13.831Z,0.50
2019-03-04T21:08:42.351Z,0.60
2019-03-04T21:11:11.741Z,0.50
2019-03-04T21:13:40.353Z,0.37
2019-03-04T21:16:08.871Z,0.70
2019-03-04T21:18:37.341Z,0.50
2019-03-04T21:21:06.877Z,0.60
2019-03-04T21:23:35.457Z,0.43
2019-03-04T21:26:07.068Z,0.70
2019-03-04T21:28:41.630Z,0.40
2019-03-04T21:31:24.911Z,0.63
2019-03-04T21:34:10.847Z,0.50
2019-03-04T21:36:47.431Z,0.40
2019-03-04T21:39:35.153Z,0.40
2019-03-04T21:42:09.358Z,0.30
2019-03-04T21:44:46.469Z,0.50
2019-03-04T21:47:20.831Z,0.40
2019-03-04T21:49:51.022Z,0.30
2019-03-04T21:52:29.011Z,0.40
2019-03-04T21:54:57.693Z,0.70
2019-03-04T21:57:32.125Z,0.60
2019-03-04T22:00:00.723Z,0.70
2019-03-04T22:02:35.721Z,0.97
2019-03-04T22:05:18.416Z,0.37
2019-03-04T22:07:49.611Z,0.40
2019-03-04T22:10:18.579Z,0.20
2019-03-04T22:12:47.471Z,0.37
2019-03-04T22:15:17.420Z,0.33
2019-03-04T22:17:45.943Z,0.40
2019-03-04T22:20:16.118Z,0.40
2019-03-04T22:22:44.705Z,0.40
2019-03-04T22:25:14.216Z,0.30
2019-03-04T22:27:42.745Z,0.40
2019-03-04T22:30:16.466Z,0.43
2019-03-04T22:32:45.069Z,0.50
2019-03-04T22:35:17.425Z,0.33
2019-03-04T22:37:46.471Z,0.30
2019-03-04T22:40:23.642Z,0.40
2019-03-04T22:42:52.607Z,0.40
2019-03-04T22:45:21.920Z,0.40
2019-03-04T22:47:51.678Z,0.40
2019-03-04T22:50:23.328Z,0.30
2019-03-04T22:52:52.025Z,0.53
2019-03-04T22:55:38.447Z,0.90
2019-03-04T22:58:06.984Z,0.40
2019-03-04T23:00:49.356Z,0.40
2019-03-04T23:03:19.141Z,0.50
2019-03-04T23:05:54.318Z,0.23
2019-03-04T23:08:22.833Z,0.53
2019-03-04T23:10:52.313Z,0.40
2019-03-04T23:13:29.217Z,0.50
2019-03-04T23:15:59.500Z,0.40
2019-03-04T23:18:27.945Z,0.50
2019-03-04T23:20:56.734Z,0.40
2019-03-04T23:23:25.324Z,0.50
2019-03-04T23:25:56.268Z,0.60
2019-03-04T23:28:23.969Z,0.67
2019-03-04T23:30:52.441Z,0.60
2019-03-04T23:33:20.950Z,0.53
2019-03-04T23:35:49.489Z,0.80
2019-03-04T23:38:17.996Z,0.50
2019-03-04T23:40:46.450Z,0.50
2019-03-04T23:43:15.238Z,0.50
2019-03-04T23:45:43.853Z,0.40
2019-03-04T23:48:12.322Z,0.50
2019-03-04T23:50:40.795Z,0.37
2019-03-04T23:53:09.240Z,0.40
2019-03-04T23:55:37.682Z,0.50
2019-03-04T23:58:06.215Z,0.60
